Time;durP1;ratioP1;P1;durP2;ratioP2;P2;SDS_P1;SDS_P2;PMS_P1;PMS_P2;Temp;Humidity;BMP_temperature;BMP_pressure;BME280_temperature;BME280_humidity;BME280_pressure;Samples;Min_cycle;Max_cycle;Signal;HPM_P1;HPM_P2
2023/04/26 00:02:11;;;;;;;13.03;3.70;;;4.40;99.90;;;;;;7286189;19;20185;-79
2023/04/26 00:04:37;;;;;;;16.00;4.00;;;4.30;99.90;;;;;;7284646;19;20181;-79
2023/04/26 00:07:03;;;;;;;13.53;3.97;;;4.30;99.90;;;;;;7286363;19;20188;-78
2023/04/26 00:09:29;;;;;;;11.37;4.30;;;4.40;99.90;;;;;;7298060;19;20551;-78
2023/04/26 00:11:55;;;;;;;13.00;4.20;;;4.50;99.90;;;;;;7301327;19;20192;-80
2023/04/26 00:14:21;;;;;;;13.07;3.80;;;4.50;99.90;;;;;;7285487;19;20191;-79
2023/04/26 00:16:47;;;;;;;10.77;4.50;;;4.70;99.90;;;;;;7283118;19;20644;-79
2023/04/26 00:19:12;;;;;;;11.93;4.70;;;4.70;99.90;;;;;;7284095;19;20252;-78
2023/04/26 00:21:39;;;;;;;11.80;4.60;;;4.70;99.90;;;;;;7284407;19;20191;-78
2023/04/26 00:24:05;;;;;;;15.17;4.57;;;4.70;99.90;;;;;;7283435;19;20185;-80
2023/04/26 00:26:33;;;;;;;12.80;4.57;;;4.60;99.90;;;;;;7285465;19;20192;-78
2023/04/26 00:28:59;;;;;;;14.93;4.60;;;4.60;99.90;;;;;;7305363;19;20187;-77
2023/04/26 00:31:25;;;;;;;11.73;4.67;;;4.30;99.90;;;;;;7283532;19;20745;-79
2023/04/26 00:33:51;;;;;;;14.30;5.00;;;4.30;99.90;;;;;;7284109;19;20262;-79
2023/04/26 00:36:18;;;;;;;15.57;5.30;;;4.40;99.90;;;;;;7283232;19;20192;-78
2023/04/26 00:38:47;;;;;;;17.67;5.47;;;4.50;99.90;;;;;;7278761;19;20635;-79
2023/04/26 00:41:13;;;;;;;15.80;5.70;;;4.50;99.90;;;;;;7283126;19;20203;-78
2023/04/26 00:43:39;;;;;;;13.57;5.47;;;4.40;99.90;;;;;;7282821;19;20196;-79
2023/04/26 00:46:09;;;;;;;14.37;5.30;;;4.30;99.90;;;;;;7283243;19;20575;-79
2023/04/26 00:48:37;;;;;;;17.00;5.60;;;4.30;99.90;;;;;;7281946;19;20211;-79
2023/04/26 00:51:04;;;;;;;17.00;5.40;;;4.20;99.90;;;;;;7283188;19;20184;-79
2023/04/26 00:53:33;;;;;;;16.40;5.40;;;4.10;99.90;;;;;;7286356;19;20248;-79
2023/04/26 00:55:59;;;;;;;15.97;5.40;;;4.10;99.90;;;;;;7304480;19;20177;-80
2023/04/26 00:58:25;;;;;;;15.63;5.13;;;4.00;99.90;;;;;;7283375;19;20741;-79
2023/04/26 01:00:51;;;;;;;12.87;4.83;;;4.00;99.90;;;;;;7283393;19;20184;-79
2023/04/26 01:03:17;;;;;;;18.13;5.60;;;4.00;99.90;;;;;;7282522;19;20680;-79
2023/04/26 01:05:44;;;;;;;19.70;5.73;;;4.10;99.90;;;;;;7282408;19;20535;-79
2023/04/26 01:08:10;;;;;;;16.53;5.97;;;4.10;99.90;;;;;;7281883;19;20212;-80
2023/04/26 01:10:36;;;;;;;15.67;5.00;;;4.10;99.90;;;;;;7281295;19;20648;-79
2023/04/26 01:13:02;;;;;;;14.40;4.93;;;4.00;99.90;;;;;;7281222;19;20189;-78
2023/04/26 01:15:29;;;;;;;15.77;5.13;;;3.90;99.90;;;;;;7303418;19;20189;-79
2023/04/26 01:17:56;;;;;;;11.87;4.80;;;4.00;99.90;;;;;;7282841;19;20689;-79
2023/04/26 01:20:23;;;;;;;14.27;5.27;;;3.90;99.90;;;;;;7282473;19;20181;-79
2023/04/26 01:22:49;;;;;;;14.83;5.30;;;4.00;99.90;;;;;;7280308;19;20185;-79
2023/04/26 01:25:16;;;;;;;13.63;4.90;;;3.90;99.90;;;;;;7282533;19;20189;-79
2023/04/26 01:27:41;;;;;;;17.07;5.40;;;3.80;99.90;;;;;;7283016;19;20190;-79
2023/04/26 01:30:08;;;;;;;12.60;5.10;;;3.70;99.90;;;;;;7287410;19;20184;-78
2023/04/26 01:32:34;;;;;;;14.17;5.40;;;3.70;99.90;;;;;;7287977;19;20180;-78
2023/04/26 01:35:01;;;;;;;19.67;5.50;;;3.70;99.90;;;;;;7298137;19;20188;-78
2023/04/26 01:37:27;;;;;;;16.23;5.00;;;3.70;99.90;;;;;;7310019;19;20189;-79
2023/04/26 01:39:53;;;;;;;14.47;6.17;;;3.80;99.90;;;;;;7287816;19;20254;-79
2023/04/26 01:42:19;;;;;;;15.00;5.53;;;3.80;99.90;;;;;;7289329;19;20192;-81
2023/04/26 01:44:45;;;;;;;16.50;5.30;;;3.80;99.90;;;;;;7288327;19;20193;-78
2023/04/26 01:47:10;;;;;;;16.07;5.40;;;3.50;99.90;;;;;;7287874;19;20190;-79
2023/04/26 01:49:36;;;;;;;18.87;5.20;;;3.50;99.90;;;;;;7287484;19;20185;-79
2023/04/26 01:52:02;;;;;;;23.70;5.70;;;3.40;99.90;;;;;;7287906;19;20707;-78
2023/04/26 01:54:29;;;;;;;13.67;5.30;;;3.40;99.90;;;;;;7309735;19;20181;-79
2023/04/26 01:56:55;;;;;;;12.97;5.57;;;3.40;99.90;;;;;;7288411;19;20685;-79
2023/04/26 01:59:21;;;;;;;16.63;5.83;;;3.30;99.90;;;;;;7287717;19;20245;-80
2023/04/26 02:01:47;;;;;;;19.40;5.97;;;3.30;99.90;;;;;;7288506;19;20205;-78
2023/04/26 02:04:13;;;;;;;17.70;6.07;;;3.30;99.90;;;;;;7288041;19;20199;-78
2023/04/26 02:06:40;;;;;;;14.80;5.23;;;3.30;99.90;;;;;;7288852;19;20185;-79
2023/04/26 02:09:08;;;;;;;13.27;5.23;;;3.10;99.90;;;;;;7286916;19;20749;-80
2023/04/26 02:11:34;;;;;;;16.80;5.70;;;3.00;99.90;;;;;;7286772;19;20196;-79
2023/04/26 02:14:01;;;;;;;17.87;5.57;;;3.00;99.90;;;;;;7300333;19;20568;-79
2023/04/26 02:16:27;;;;;;;14.10;5.67;;;3.00;99.90;;;;;;7309361;19;20260;-79
2023/04/26 02:18:53;;;;;;;20.90;6.40;;;3.00;99.90;;;;;;7286883;19;20199;-80
2023/04/26 02:21:20;;;;;;;17.13;6.00;;;3.00;99.90;;;;;;7288111;19;20302;-79
2023/04/26 02:23:46;;;;;;;15.70;6.00;;;3.00;99.90;;;;;;7286057;19;20203;-79
2023/04/26 02:26:13;;;;;;;15.83;5.87;;;2.90;99.90;;;;;;7286026;19;20196;-79
2023/04/26 02:28:39;;;;;;;17.30;5.90;;;3.00;99.90;;;;;;7287561;19;20206;-79
2023/04/26 02:31:05;;;;;;;18.97;5.90;;;3.00;99.90;;;;;;7287818;19;20188;-79
2023/04/26 02:33:31;;;;;;;18.33;6.23;;;3.10;99.90;;;;;;7292122;19;20603;-79
2023/04/26 02:35:57;;;;;;;19.47;6.37;;;3.20;99.90;;;;;;7310175;19;20263;-80
2023/04/26 02:38:26;;;;;;;16.20;6.30;;;3.20;99.90;;;;;;7287528;19;20203;-79
2023/04/26 02:41:00;;;;;;;16.40;6.10;;;3.30;99.90;;;;;;7284780;19;20572;-80
2023/04/26 02:43:26;;;;;;;21.23;6.50;;;3.20;99.90;;;;;;7286574;19;20545;-80
2023/04/26 02:45:52;;;;;;;14.00;6.10;;;3.40;99.90;;;;;;7285062;19;20208;-79
2023/04/26 02:48:18;;;;;;;16.57;6.73;;;3.50;99.90;;;;;;7286708;19;20186;-79
2023/04/26 02:50:44;;;;;;;17.53;6.43;;;3.60;99.90;;;;;;7285321;19;20549;-79
2023/04/26 02:53:12;;;;;;;14.77;6.07;;;3.60;99.90;;;;;;7286406;19;20184;-79
2023/04/26 02:55:38;;;;;;;14.13;5.70;;;3.70;99.90;;;;;;7286448;19;20222;-78
2023/04/26 02:58:05;;;;;;;19.17;6.23;;;3.80;99.90;;;;;;7286123;19;20204;-78
2023/04/26 03:00:32;;;;;;;17.27;6.27;;;3.80;99.90;;;;;;7291605;19;20290;-78
2023/04/26 03:02:59;;;;;;;15.30;6.33;;;3.80;99.90;;;;;;7308528;19;20199;-79
2023/04/26 03:05:25;;;;;;;18.20;5.33;;;3.90;99.90;;;;;;7287415;19;20574;-79
2023/04/26 03:07:51;;;;;;;17.50;6.30;;;3.90;99.90;;;;;;7285404;19;21454;-79
2023/04/26 03:10:17;;;;;;;13.47;6.10;;;3.90;99.90;;;;;;7285459;19;20188;-78
2023/04/26 03:12:43;;;;;;;16.23;6.40;;;4.00;99.90;;;;;;7284033;19;20192;-78
2023/04/26 03:15:09;;;;;;;13.27;5.97;;;4.00;99.90;;;;;;7285402;19;20185;-79
2023/04/26 03:17:36;;;;;;;15.60;6.13;;;3.60;99.90;;;;;;7284463;19;20528;-79
2023/04/26 03:20:05;;;;;;;16.90;5.93;;;3.60;99.90;;;;;;7286102;19;20209;-78
2023/04/26 03:22:32;;;;;;;13.70;6.20;;;3.60;99.90;;;;;;7283258;19;20191;-78
2023/04/26 03:24:58;;;;;;;16.03;6.63;;;3.30;99.90;;;;;;7308246;19;20255;-79
2023/04/26 03:27:26;;;;;;;21.63;6.20;;;3.20;99.90;;;;;;7285966;19;20740;-79
2023/04/26 03:29:52;;;;;;;18.57;5.80;;;3.10;99.90;;;;;;7286258;19;20189;-79
2023/04/26 03:32:17;;;;;;;15.77;6.17;;;3.00;99.90;;;;;;7284173;19;20188;-78
2023/04/26 03:34:43;;;;;;;15.90;6.40;;;3.10;99.90;;;;;;7285414;19;20193;-78
2023/04/26 03:37:09;;;;;;;15.50;6.17;;;3.00;99.90;;;;;;7284684;19;20206;-79
2023/04/26 03:39:37;;;;;;;16.87;6.27;;;2.90;99.90;;;;;;7286281;19;20215;-79
2023/04/26 03:42:03;;;;;;;19.83;6.67;;;2.90;99.90;;;;;;7284044;19;20184;-79
2023/04/26 03:44:29;;;;;;;17.27;5.70;;;3.00;99.90;;;;;;7307501;19;20618;-79
2023/04/26 03:46:55;;;;;;;21.73;6.47;;;3.00;99.90;;;;;;7284944;19;20775;-80
2023/04/26 03:49:21;;;;;;;16.70;6.03;;;3.00;99.90;;;;;;7284622;19;20262;-79
2023/04/26 03:51:47;;;;;;;16.07;6.13;;;2.90;99.90;;;;;;7282408;19;20199;-79
2023/04/26 03:54:14;;;;;;;14.50;6.90;;;2.90;99.90;;;;;;7283145;19;20211;-79
2023/04/26 03:56:40;;;;;;;19.10;6.40;;;3.00;99.90;;;;;;7283505;19;20185;-79
2023/04/26 03:59:08;;;;;;;19.53;6.90;;;3.10;99.90;;;;;;7285249;19;20197;-78
2023/04/26 04:01:36;;;;;;;19.07;6.60;;;3.10;99.90;;;;;;7283553;19;20716;-78
2023/04/26 04:04:02;;;;;;;21.40;6.70;;;3.00;99.90;;;;;;7283743;19;20191;-79
2023/04/26 04:06:28;;;;;;;16.73;6.90;;;2.90;99.90;;;;;;7306094;19;20231;-79
2023/04/26 04:08:54;;;;;;;14.63;6.60;;;2.90;99.90;;;;;;7284786;19;20711;-79
2023/04/26 04:11:22;;;;;;;20.80;6.63;;;2.80;99.90;;;;;;7284684;19;21713;-79
2023/04/26 04:13:48;;;;;;;17.47;6.60;;;2.80;99.90;;;;;;7283969;19;20189;-79
2023/04/26 04:16:14;;;;;;;20.47;7.10;;;2.80;99.90;;;;;;7283803;19;20202;-80
2023/04/26 04:18:40;;;;;;;17.13;7.10;;;2.90;99.90;;;;;;7283624;19;20189;-79
2023/04/26 04:21:05;;;;;;;18.27;6.63;;;2.90;99.90;;;;;;7283467;19;20191;-79
2023/04/26 04:23:33;;;;;;;17.47;7.03;;;2.90;99.90;;;;;;7283472;19;20189;-79
2023/04/26 04:26:02;;;;;;;22.53;6.83;;;3.10;99.90;;;;;;7296088;19;20263;-78
2023/04/26 04:28:28;;;;;;;17.37;7.13;;;3.30;99.90;;;;;;7307311;19;20241;-79
2023/04/26 04:30:55;;;;;;;17.63;7.27;;;3.20;99.90;;;;;;7284414;19;20195;-79
2023/04/26 04:33:22;;;;;;;17.97;6.40;;;3.10;99.90;;;;;;7282029;19;20269;-80
2023/04/26 04:35:47;;;;;;;17.80;7.00;;;3.00;99.90;;;;;;7284214;19;20187;-79
2023/04/26 04:38:14;;;;;;;18.17;7.10;;;3.10;99.90;;;;;;7284498;19;20196;-79
2023/04/26 04:40:40;;;;;;;20.33;6.90;;;3.00;99.90;;;;;;7282418;19;20189;-78
2023/04/26 04:43:06;;;;;;;16.87;7.30;;;3.10;99.90;;;;;;7282851;19;20217;-78
2023/04/26 04:45:32;;;;;;;23.10;7.57;;;3.40;99.90;;;;;;7282098;19;20699;-79
2023/04/26 04:47:59;;;;;;;22.37;8.17;;;3.60;99.90;;;;;;7305235;19;20258;-78
2023/04/26 04:50:26;;;;;;;18.53;7.67;;;3.60;99.90;;;;;;7283575;19;20190;-78
2023/04/26 04:52:52;;;;;;;20.53;7.40;;;3.60;99.90;;;;;;7282492;19;20188;-79
2023/04/26 04:55:20;;;;;;;21.93;7.80;;;3.60;99.90;;;;;;7282408;19;20193;-78
2023/04/26 04:57:46;;;;;;;21.27;7.17;;;3.80;99.90;;;;;;7282518;19;20186;-80
2023/04/26 05:00:13;;;;;;;21.97;8.00;;;4.10;99.90;;;;;;7282351;19;20189;-79
2023/04/26 05:03:07;;;;;;;20.67;7.90;;;4.50;99.90;;;;;;7264902;19;20269;-77
2023/04/26 05:05:33;;;;;;;18.70;8.20;;;4.90;99.90;;;;;;7291530;19;20195;-83
2023/04/26 05:07:58;;;;;;;18.57;7.80;;;5.20;99.90;;;;;;7311338;19;20657;-77
2023/04/26 05:10:25;;;;;;;17.60;7.30;;;5.60;99.90;;;;;;7291197;19;20668;-79
2023/04/26 05:12:52;;;;;;;18.40;7.93;;;5.50;99.90;;;;;;7289445;19;20859;-80
2023/04/26 05:15:18;;;;;;;20.07;7.43;;;5.60;99.90;;;;;;7290059;19;20188;-80
2023/04/26 05:17:44;;;;;;;21.40;8.50;;;5.60;99.90;;;;;;7288990;19;20200;-79
2023/04/26 05:20:16;;;;;;;18.57;7.50;;;5.70;99.90;;;;;;7289559;19;20189;-79
2023/04/26 05:22:42;;;;;;;20.40;8.83;;;5.90;99.90;;;;;;7288057;19;20947;-78
2023/04/26 05:25:09;;;;;;;20.17;7.30;;;5.90;99.90;;;;;;7289352;19;20189;-78
2023/04/26 05:27:36;;;;;;;19.50;7.83;;;5.40;99.90;;;;;;7287922;19;20180;-78
2023/04/26 05:30:19;;;;;;;19.90;8.13;;;5.30;99.90;;;;;;7290237;19;20225;-79
2023/04/26 05:33:05;;;;;;;19.60;7.77;;;5.40;99.90;;;;;;7186551;19;2004499;-80
2023/04/26 05:35:46;;;;;;;19.20;8.63;;;5.70;99.90;;;;;;7287616;19;20196;-79
2023/04/26 05:38:12;;;;;;;21.17;8.80;;;6.50;99.90;;;;;;7285296;19;20534;-80
2023/04/26 05:40:38;;;;;;;18.80;8.10;;;7.00;99.90;;;;;;7286756;19;20185;-79
2023/04/26 05:43:04;;;;;;;22.60;8.67;;;7.10;99.90;;;;;;7290353;19;20242;-80
2023/04/26 05:45:30;;;;;;;21.37;8.50;;;6.80;99.90;;;;;;7308614;19;20201;-78
2023/04/26 05:47:59;;;;;;;22.30;8.73;;;6.70;99.90;;;;;;7310278;19;20276;-79
2023/04/26 05:50:25;;;;;;;19.90;7.93;;;7.00;99.90;;;;;;7287158;19;20194;-78
2023/04/26 05:52:51;;;;;;;19.50;8.77;;;7.80;99.90;;;;;;7288902;19;20322;-79
2023/04/26 05:55:20;;;;;;;19.10;8.63;;;8.10;99.90;;;;;;7287866;19;20193;-82
2023/04/26 05:57:46;;;;;;;20.33;9.30;;;8.00;99.90;;;;;;7287638;19;20222;-79
2023/04/26 06:00:13;;;;;;;23.23;8.20;;;8.10;99.90;;;;;;7289232;19;20200;-79
2023/04/26 06:02:44;;;;;;;26.00;9.00;;;8.80;99.90;;;;;;7287860;19;20303;-79
2023/04/26 06:05:14;;;;;;;21.57;9.00;;;10.00;99.90;;;;;;7289094;19;20199;-79
2023/04/26 06:07:43;;;;;;;20.53;8.60;;;10.70;99.90;;;;;;7285769;19;20704;-78
2023/04/26 06:10:11;;;;;;;22.23;9.50;;;11.10;99.90;;;;;;7289490;19;20194;-80
2023/04/26 06:12:39;;;;;;;21.03;8.83;;;11.00;99.90;;;;;;7288861;19;20196;-79
2023/04/26 06:15:07;;;;;;;20.20;8.80;;;10.90;99.90;;;;;;7286316;19;20212;-79
2023/04/26 06:17:35;;;;;;;24.23;8.77;;;10.70;99.90;;;;;;7288850;19;20197;-80
2023/04/26 06:20:01;;;;;;;20.53;8.80;;;10.60;99.90;;;;;;7301836;19;20195;-80
2023/04/26 06:22:27;;;;;;;19.63;8.70;;;10.70;99.90;;;;;;7307569;19;20196;-79
2023/04/26 06:24:53;;;;;;;23.53;8.83;;;11.10;99.90;;;;;;7285577;19;20281;-80
2023/04/26 06:27:19;;;;;;;18.03;8.37;;;11.20;99.90;;;;;;7287857;19;20217;-79
2023/04/26 06:29:47;;;;;;;22.37;8.30;;;11.20;99.90;;;;;;7287801;19;20645;-80
2023/04/26 06:32:14;;;;;;;22.87;8.30;;;11.10;99.90;;;;;;7286304;19;20202;-79
2023/04/26 06:34:42;;;;;;;21.03;8.17;;;11.00;99.90;;;;;;7286511;19;20678;-80
2023/04/26 06:37:08;;;;;;;18.03;7.43;;;10.90;99.90;;;;;;7288084;19;20300;-80
2023/04/26 06:39:37;;;;;;;21.40;8.83;;;10.70;99.90;;;;;;7287681;19;20256;-79
2023/04/26 06:42:05;;;;;;;22.17;8.27;;;10.60;99.90;;;;;;7286247;19;20198;-79
2023/04/26 06:44:48;;;;;;;23.27;8.63;;;10.40;99.90;;;;;;7285652;19;20204;-80
2023/04/26 06:47:16;;;;;;;20.90;8.03;;;10.20;99.90;;;;;;7285780;19;20192;-79
2023/04/26 06:49:41;;;;;;;21.00;7.63;;;10.00;99.90;;;;;;7284805;19;20194;-80
2023/04/26 06:52:07;;;;;;;20.57;7.63;;;9.90;99.90;;;;;;7286230;19;20280;-79
2023/04/26 06:54:33;;;;;;;23.20;8.17;;;9.80;99.90;;;;;;7286528;19;20212;-79
2023/04/26 06:56:59;;;;;;;22.30;7.60;;;9.80;99.90;;;;;;7309490;19;20769;-80
2023/04/26 06:59:25;;;;;;;19.27;8.03;;;9.80;99.90;;;;;;7286009;19;20714;-80
2023/04/26 07:01:53;;;;;;;25.67;8.37;;;10.00;99.90;;;;;;7287513;19;20708;-80
2023/04/26 07:04:19;;;;;;;20.37;7.60;;;10.20;99.90;;;;;;7288921;19;20189;-80
2023/04/26 07:06:45;;;;;;;22.97;8.43;;;10.20;99.90;;;;;;7288182;19;20184;-80
2023/04/26 07:09:12;;;;;;;21.57;8.27;;;10.30;99.90;;;;;;7286962;19;20280;-78
2023/04/26 07:11:38;;;;;;;19.77;8.13;;;10.40;99.90;;;;;;7286474;19;20192;-79
2023/04/26 07:14:04;;;;;;;21.23;7.77;;;10.30;99.90;;;;;;7285173;19;20185;-79
2023/04/26 07:16:30;;;;;;;18.03;7.60;;;10.30;99.90;;;;;;7308883;19;20206;-80
2023/04/26 07:18:58;;;;;;;22.27;7.90;;;10.30;99.90;;;;;;7287079;19;20252;-80
2023/04/26 07:21:25;;;;;;;19.87;7.23;;;10.30;99.90;;;;;;7285411;19;20197;-78
2023/04/26 07:23:55;;;;;;;18.57;7.83;;;10.30;99.90;;;;;;7286978;19;20202;-80
2023/04/26 07:26:22;;;;;;;19.07;7.63;;;10.40;99.90;;;;;;7283081;19;20206;-79
2023/04/26 07:28:49;;;;;;;20.50;7.57;;;10.70;99.90;;;;;;7285900;19;20188;-79
2023/04/26 07:31:15;;;;;;;20.40;8.40;;;10.70;99.90;;;;;;7286761;19;20193;-81
2023/04/26 07:33:41;;;;;;;17.07;8.13;;;10.80;99.90;;;;;;7285552;19;20285;-80
2023/04/26 07:36:07;;;;;;;21.17;8.00;;;10.90;99.90;;;;;;7285438;19;20193;-79
2023/04/26 07:38:33;;;;;;;20.53;8.10;;;11.00;99.90;;;;;;7283741;19;20213;-79
2023/04/26 07:41:00;;;;;;;13.93;7.47;;;11.10;99.90;;;;;;7307207;19;20525;-79
2023/04/26 07:43:26;;;;;;;21.23;8.50;;;11.30;99.90;;;;;;7286304;19;20275;-79
2023/04/26 07:45:52;;;;;;;20.40;7.47;;;11.50;99.90;;;;;;7286229;19;20206;-79
2023/04/26 07:48:17;;;;;;;18.37;7.13;;;11.90;99.90;;;;;;7285386;19;20192;-80
2023/04/26 07:50:43;;;;;;;20.80;7.03;;;12.10;99.90;;;;;;7286569;19;20191;-79
2023/04/26 07:53:09;;;;;;;17.07;7.13;;;12.40;99.90;;;;;;7285234;19;20197;-79
2023/04/26 07:55:36;;;;;;;17.53;5.87;;;12.70;99.90;;;;;;7285532;19;20193;-80
2023/04/26 07:58:02;;;;;;;15.30;5.43;;;12.90;99.90;;;;;;7294422;19;20207;-78
2023/04/26 08:00:28;;;;;;;21.63;6.90;;;12.90;99.90;;;;;;7309465;19;20221;-80
2023/04/26 08:02:54;;;;;;;17.33;6.67;;;13.20;99.90;;;;;;7287173;19;20183;-81
2023/04/26 08:05:20;;;;;;;16.67;5.90;;;14.00;99.90;;;;;;7287632;19;20655;-80
2023/04/26 08:07:47;;;;;;;12.77;5.47;;;15.60;99.90;;;;;;7287459;19;20252;-80
2023/04/26 08:10:13;;;;;;;13.80;5.23;;;16.90;99.90;;;;;;7287354;19;20254;-79
2023/04/26 08:12:39;;;;;;;12.33;4.37;;;17.20;99.90;;;;;;7284184;19;20644;-79
2023/04/26 08:15:05;;;;;;;17.13;4.63;;;17.00;99.90;;;;;;7283678;19;20191;-79
2023/04/26 08:17:31;;;;;;;13.73;4.07;;;16.20;99.90;;;;;;7306971;19;20188;-77
2023/04/26 08:19:58;;;;;;;11.37;3.90;;;15.50;99.90;;;;;;7299682;19;20178;-78
2023/04/26 08:22:24;;;;;;;9.13;2.87;;;16.00;99.90;;;;;;7284720;19;20207;-79
2023/04/26 08:24:54;;;;;;;11.70;3.60;;;15.30;99.90;;;;;;7284920;19;20185;-78
2023/04/26 08:27:20;;;;;;;12.53;2.77;;;15.60;99.90;;;;;;7285906;19;20547;-79
2023/04/26 08:29:47;;;;;;;13.13;3.30;;;17.80;99.90;;;;;;7288191;19;20646;-78
2023/04/26 08:32:14;;;;;;;10.63;2.70;;;18.90;99.90;;;;;;7286708;19;20188;-78
2023/04/26 08:34:40;;;;;;;10.23;3.30;;;19.20;99.90;;;;;;7281043;19;20198;-79
2023/04/26 08:37:09;;;;;;;14.33;4.33;;;19.70;99.90;;;;;;7287048;19;20192;-80
2023/04/26 08:39:35;;;;;;;11.47;2.73;;;20.20;97.40;;;;;;7290115;19;20195;-79
2023/04/26 08:42:07;;;;;;;9.50;2.23;;;21.40;95.10;;;;;;7312688;19;20185;-79
2023/04/26 08:44:35;;;;;;;8.93;2.67;;;23.00;88.10;;;;;;7270945;19;20193;-78
2023/04/26 08:47:12;;;;;;;9.53;2.97;;;23.40;80.40;;;;;;7312641;19;20258;-78
2023/04/26 08:49:44;;;;;;;9.23;2.10;;;22.40;81.60;;;;;;7188116;19;2004556;-78
2023/04/26 08:52:16;;;;;;;6.83;2.00;;;21.10;75.30;;;;;;7289453;19;20253;-79
2023/04/26 08:54:42;;;;;;;9.03;2.17;;;19.80;76.30;;;;;;7289429;19;20192;-78
2023/04/26 08:57:08;;;;;;;8.90;2.10;;;18.90;80.10;;;;;;7290011;19;20188;-78
2023/04/26 08:59:36;;;;;;;9.70;2.30;;;18.80;80.20;;;;;;7290619;19;20208;-78
2023/04/26 09:02:08;;;;;;;6.70;2.10;;;19.00;83.40;;;;;;7306502;19;20196;-77
2023/04/26 09:04:34;;;;;;;12.97;2.50;;;19.40;84.40;;;;;;7291846;19;20191;-78
2023/04/26 09:07:03;;;;;;;9.17;2.60;;;18.90;80.80;;;;;;7312649;19;20195;-79
2023/04/26 09:09:36;;;;;;;6.80;1.80;;;18.80;82.30;;;;;;7290592;19;20555;-80
2023/04/26 09:12:03;;;;;;;7.33;1.60;;;18.40;79.70;;;;;;7277298;19;20252;-78
2023/04/26 09:14:29;;;;;;;11.33;2.23;;;17.80;81.30;;;;;;7311111;19;20200;-79
2023/04/26 09:16:56;;;;;;;6.90;2.00;;;17.60;79.20;;;;;;7289457;19;20595;-78
2023/04/26 09:19:54;;;;;;;9.87;1.93;;;17.30;82.20;;;;;;7289418;19;20201;-79
2023/04/26 09:22:34;;;;;;;6.70;2.07;;;17.40;81.80;;;;;;7185266;19;2005770;-80
2023/04/26 09:25:05;;;;;;;9.20;2.07;;;17.70;85.30;;;;;;7291515;19;20195;-79
2023/04/26 09:27:37;;;;;;;8.17;1.90;;;17.10;81.20;;;;;;7287389;19;20199;-77
2023/04/26 09:30:19;;;;;;;7.27;1.70;;;17.10;83.00;;;;;;7295717;19;20183;-79
2023/04/26 09:32:50;;;;;;;8.40;1.90;;;17.20;82.70;;;;;;7290540;19;20263;-79
2023/04/26 09:35:32;;;;;;;6.37;1.50;;;16.90;81.10;;;;;;7289251;19;20194;-80
2023/04/26 09:37:59;;;;;;;9.20;2.27;;;17.40;82.40;;;;;;7291482;19;20192;-79
2023/04/26 09:40:27;;;;;;;4.97;1.33;;;19.90;83.60;;;;;;7289288;19;20178;-80
2023/04/26 09:43:03;;;;;;;6.43;1.50;;;21.10;69.20;;;;;;7287578;19;20192;-80
2023/04/26 09:45:32;;;;;;;7.90;1.67;;;21.50;66.90;;;;;;7291253;19;20193;-80
2023/04/26 09:48:27;;;;;;;6.03;1.70;;;22.00;67.90;;;;;;7291250;19;20208;-79
2023/04/26 09:50:55;;;;;;;8.20;1.90;;;20.80;66.00;;;;;;7187958;19;2004714;-78
2023/04/26 09:53:36;;;;;;;6.10;1.43;;;20.00;67.90;;;;;;7289317;19;20203;-80
2023/04/26 09:56:13;;;;;;;7.20;1.77;;;20.20;67.80;;;;;;7285231;19;20601;-77
2023/04/26 09:59:00;;;;;;;5.50;1.40;;;19.60;73.00;;;;;;7288218;19;20188;-80
2023/04/26 10:01:30;;;;;;;8.63;1.90;;;19.70;74.00;;;;;;7288255;19;20250;-81
2023/04/26 10:03:56;;;;;;;6.20;1.53;;;20.00;72.30;;;;;;7287167;19;20177;-80
2023/04/26 10:06:23;;;;;;;9.03;1.97;;;20.50;70.90;;;;;;7288677;19;20205;-80
2023/04/26 10:08:49;;;;;;;7.37;2.00;;;20.40;73.00;;;;;;7288281;19;20185;-80
2023/04/26 10:11:15;;;;;;;8.03;2.07;;;21.30;68.60;;;;;;7287165;19;20188;-80
2023/04/26 10:13:41;;;;;;;9.83;2.33;;;20.80;68.60;;;;;;7287804;19;20683;-79
2023/04/26 10:16:08;;;;;;;10.43;1.90;;;21.10;67.90;;;;;;7288314;19;20185;-78
2023/04/26 10:18:34;;;;;;;10.63;2.20;;;22.10;67.50;;;;;;7288382;19;20192;-80
2023/04/26 10:21:25;;;;;;;5.00;1.50;;;22.30;64.40;;;;;;7309551;19;20204;-80
2023/04/26 10:23:51;;;;;;;8.70;1.80;;;22.80;68.10;;;;;;7185724;19;2004647;-80
2023/04/26 10:26:51;;;;;;;8.10;1.77;;;23.70;64.30;;;;;;7285532;19;20226;-80
2023/04/26 10:29:18;;;;;;;8.83;1.93;;;23.20;63.20;;;;;;7187637;19;2004501;-79
2023/04/26 10:32:04;;;;;;;8.80;2.00;;;22.00;61.30;;;;;;7287833;19;20594;-79
2023/04/26 10:34:32;;;;;;;6.50;1.90;;;21.80;64.10;;;;;;7284690;19;20179;-80
2023/04/26 10:37:14;;;;;;;8.10;2.37;;;22.50;61.40;;;;;;7289704;19;20203;-81
2023/04/26 10:39:41;;;;;;;5.87;1.73;;;22.20;60.70;;;;;;7184411;19;2005006;-81
2023/04/26 10:42:24;;;;;;;9.00;2.07;;;21.80;62.10;;;;;;7285630;19;20299;-80
2023/04/26 10:44:54;;;;;;;7.00;2.13;;;23.00;60.70;;;;;;7290593;19;20199;-80
2023/04/26 10:47:31;;;;;;;6.83;1.90;;;24.50;58.20;;;;;;7287799;19;20308;-80
2023/04/26 10:50:08;;;;;;;8.70;1.87;;;25.40;57.70;;;;;;7287877;19;20184;-80
2023/04/26 10:52:58;;;;;;;8.10;1.77;;;24.80;56.20;;;;;;7265385;19;20184;-80
2023/04/26 10:55:40;;;;;;;6.00;1.60;;;24.30;58.20;;;;;;7286769;19;20185;-80
2023/04/26 10:58:29;;;;;;;5.23;1.70;;;25.40;57.00;;;;;;7264863;19;20370;-80
2023/04/26 11:01:12;;;;;;;6.70;1.70;;;26.70;52.00;;;;;;7286255;19;20189;-80
2023/04/26 11:03:39;;;;;;;7.20;1.53;;;25.50;50.20;;;;;;7184568;19;2004505;-80
2023/04/26 11:06:12;;;;;;;6.13;1.80;;;24.90;51.00;;;;;;7284533;19;20191;-81
2023/04/26 11:08:42;;;;;;;5.90;2.17;;;25.20;53.40;;;;;;7285345;19;20196;-80
2023/04/26 11:11:10;;;;;;;5.83;1.90;;;25.00;52.70;;;;;;7286170;19;20209;-82
2023/04/26 11:13:38;;;;;;;7.17;2.00;;;25.60;54.90;;;;;;7286021;19;20185;-79
2023/04/26 11:16:15;;;;;;;5.70;1.73;;;25.40;53.10;;;;;;7285994;19;20185;-80
2023/04/26 11:18:43;;;;;;;7.20;2.00;;;24.90;53.80;;;;;;7286957;19;20207;-80
2023/04/26 11:21:09;;;;;;;8.40;2.00;;;25.70;53.20;;;;;;7284841;19;20188;-81
2023/04/26 11:23:35;;;;;;;6.57;2.00;;;26.00;49.90;;;;;;7288308;19;20326;-81
2023/04/26 11:26:03;;;;;;;6.17;1.80;;;25.20;51.50;;;;;;7307303;19;20184;-82
2023/04/26 11:28:33;;;;;;;8.63;1.97;;;25.10;50.40;;;;;;7287251;19;20177;-84
2023/04/26 11:31:00;;;;;;;8.67;2.23;;;24.30;52.10;;;;;;7287508;19;20181;-83
2023/04/26 11:33:26;;;;;;;6.00;2.00;;;23.40;52.00;;;;;;7285760;19;20614;-82
2023/04/26 11:35:54;;;;;;;7.20;2.03;;;22.90;53.00;;;;;;7288521;19;20292;-81
2023/04/26 11:38:24;;;;;;;9.43;2.33;;;21.80;53.80;;;;;;7286625;19;20186;-81
2023/04/26 11:41:01;;;;;;;8.13;2.10;;;20.30;55.80;;;;;;7283694;19;20830;-81
2023/04/26 11:43:35;;;;;;;7.60;2.50;;;18.70;58.70;;;;;;7287001;19;20681;-82
2023/04/26 11:46:01;;;;;;;6.87;2.27;;;18.20;59.30;;;;;;7286241;19;20194;-80
2023/04/26 11:48:29;;;;;;;11.43;2.53;;;18.20;64.60;;;;;;7286861;19;20185;-82
2023/04/26 11:50:58;;;;;;;6.80;2.30;;;17.60;64.10;;;;;;7286580;19;20184;-79
2023/04/26 11:53:24;;;;;;;8.67;2.53;;;17.30;64.40;;;;;;7283674;19;20261;-80
2023/04/26 11:55:51;;;;;;;9.30;2.30;;;17.50;64.70;;;;;;7283771;19;20208;-81
2023/04/26 11:58:17;;;;;;;11.70;2.67;;;17.70;62.90;;;;;;7284322;19;20663;-81
2023/04/26 12:01:00;;;;;;;8.77;2.33;;;17.30;63.20;;;;;;7283786;19;20190;-81
2023/04/26 12:03:36;;;;;;;7.30;2.40;;;17.40;63.50;;;;;;7283619;19;20193;-80
2023/04/26 12:06:02;;;;;;;6.03;2.30;;;17.30;64.10;;;;;;7285787;19;20221;-80
2023/04/26 12:08:30;;;;;;;11.50;2.63;;;17.40;63.70;;;;;;7286032;19;20203;-80
2023/04/26 12:11:02;;;;;;;8.87;2.43;;;19.00;63.60;;;;;;7285128;19;20256;-80
2023/04/26 12:13:29;;;;;;;7.87;2.70;;;18.90;59.80;;;;;;7283000;19;20288;-80
2023/04/26 12:15:55;;;;;;;8.83;2.37;;;19.50;63.90;;;;;;7283608;19;20287;-79
2023/04/26 12:18:28;;;;;;;7.50;2.30;;;20.30;62.40;;;;;;7285283;19;20664;-80
2023/04/26 12:20:57;;;;;;;8.43;2.43;;;20.10;61.40;;;;;;7284781;19;20192;-80
2023/04/26 12:23:23;;;;;;;7.37;2.17;;;20.10;59.10;;;;;;7284646;19;20191;-80
2023/04/26 12:25:59;;;;;;;10.00;2.40;;;19.90;58.90;;;;;;7306342;19;20202;-79
2023/04/26 12:28:25;;;;;;;7.57;2.40;;;19.10;59.40;;;;;;7285250;19;20609;-80
2023/04/26 12:30:51;;;;;;;8.73;2.33;;;17.70;60.50;;;;;;7284838;19;20624;-80
2023/04/26 12:33:21;;;;;;;7.23;2.80;;;17.40;62.50;;;;;;7283593;19;20251;-80
2023/04/26 12:35:48;;;;;;;6.07;2.83;;;17.00;63.40;;;;;;7282014;19;20281;-79
2023/04/26 12:38:14;;;;;;;11.63;2.60;;;17.10;65.10;;;;;;7284444;19;20214;-80
2023/04/26 12:40:41;;;;;;;9.37;2.63;;;17.00;64.20;;;;;;7283345;19;20185;-78
2023/04/26 12:43:07;;;;;;;11.47;3.03;;;17.30;64.20;;;;;;7282613;19;20204;-80
2023/04/26 12:45:33;;;;;;;9.80;2.57;;;17.40;62.50;;;;;;7295428;19;20706;-81
2023/04/26 12:47:59;;;;;;;8.83;2.30;;;17.30;63.00;;;;;;7302431;19;20784;-80
2023/04/26 12:50:25;;;;;;;8.53;2.57;;;17.70;63.90;;;;;;7285018;19;20217;-80